KDTA Airport (Delta Muni) Information

FAA: DTA - ICAO: KDTA

KDTA Airport Location

State Utah
County Millard
City Delta
KDTA Airport is 3 miles northeast of Delta, UT.
Latitude 39-23-00.9530N
Longitude 112-30-07.9390W
Elevation 4,759ft

KDTA Airport METARs

METAR KDTA 250015Z AUTO 15010G18KT 10SM SCT120 15/02 A2980 RMK AO1
Altimeter 29.80"
Temperature 15.0°C (59.0°F)
Wind 150° at 10KT with gusts to 18KT
Clouds scattered at 12,000ft
Visibility 10.0mi
Time observed: 2021-10-25T00:15:00Z

KDTA Airport Details

Status Operational
Activation June 1943
Ownership Public
Usage Public
Chart LAS VEGAS
ATC on-site No
Beacon schedule sunset-sunrise
Beacon color clear green

KDTA Airport Contacts

Owner DELTA CITY
Owner address 76 NORTH 200 WEST, DELTA, UT 84624
Owner phone 435-864-2759
Manager CHARLIE AVARITT
Manager address PO BOX 760, ZAPATA, TX 78076
Manager phone 956-765-4453

KDTA Airport (Delta Muni) Radio Frequencies

KDTA (Airport) Radio Frequencies

UNICOM 122.8
Common traffic advisory frequency (CTAF) 122.8